sensor_id;sensor_type;location;lat;lon;timestamp;P1;durP1;ratioP1;P2;durP2;ratioP2
19183;SDS011;9724;51.194;6.856;2023-04-24T00:01:54;3.90;;;1.20;;
19183;SDS011;9724;51.194;6.856;2023-04-24T00:04:20;2.53;;;1.40;;
19183;SDS011;9724;51.194;6.856;2023-04-24T00:06:47;1.97;;;1.43;;
19183;SDS011;9724;51.194;6.856;2023-04-24T00:09:19;1.30;;;1.20;;
19183;SDS011;9724;51.194;6.856;2023-04-24T00:11:45;1.70;;;1.33;;
19183;SDS011;9724;51.194;6.856;2023-04-24T00:14:11;1.10;;;1.10;;
19183;SDS011;9724;51.194;6.856;2023-04-24T00:16:37;1.30;;;1.20;;
19183;SDS011;9724;51.194;6.856;2023-04-24T00:19:04;1.20;;;1.10;;
19183;SDS011;9724;51.194;6.856;2023-04-24T00:21:31;1.23;;;1.23;;
19183;SDS011;9724;51.194;6.856;2023-04-24T00:23:58;4.47;;;1.07;;
19183;SDS011;9724;51.194;6.856;2023-04-24T00:26:25;1.10;;;1.10;;
19183;SDS011;9724;51.194;6.856;2023-04-24T00:28:51;1.43;;;1.33;;
19183;SDS011;9724;51.194;6.856;2023-04-24T00:31:17;3.23;;;1.50;;
19183;SDS011;9724;51.194;6.856;2023-04-24T00:33:44;2.93;;;1.50;;
19183;SDS011;9724;51.194;6.856;2023-04-24T00:36:10;4.73;;;1.40;;
19183;SDS011;9724;51.194;6.856;2023-04-24T00:38:36;6.40;;;1.63;;
19183;SDS011;9724;51.194;6.856;2023-04-24T00:41:03;1.57;;;1.47;;
19183;SDS011;9724;51.194;6.856;2023-04-24T00:43:29;2.67;;;1.60;;
19183;SDS011;9724;51.194;6.856;2023-04-24T00:45:55;2.50;;;1.87;;
19183;SDS011;9724;51.194;6.856;2023-04-24T00:48:22;2.40;;;1.80;;
19183;SDS011;9724;51.194;6.856;2023-04-24T00:50:49;2.00;;;1.60;;
19183;SDS011;9724;51.194;6.856;2023-04-24T00:53:15;2.73;;;1.77;;
19183;SDS011;9724;51.194;6.856;2023-04-24T00:55:41;1.87;;;1.70;;
19183;SDS011;9724;51.194;6.856;2023-04-24T00:58:08;4.73;;;1.50;;
19183;SDS011;9724;51.194;6.856;2023-04-24T01:00:35;1.63;;;1.53;;
19183;SDS011;9724;51.194;6.856;2023-04-24T01:03:01;4.83;;;1.37;;
19183;SDS011;9724;51.194;6.856;2023-04-24T01:05:31;3.07;;;1.33;;
19183;SDS011;9724;51.194;6.856;2023-04-24T01:07:57;1.93;;;1.13;;
19183;SDS011;9724;51.194;6.856;2023-04-24T01:10:24;1.83;;;1.60;;
19183;SDS011;9724;51.194;6.856;2023-04-24T01:12:51;1.87;;;1.77;;
19183;SDS011;9724;51.194;6.856;2023-04-24T01:15:18;1.40;;;1.40;;
19183;SDS011;9724;51.194;6.856;2023-04-24T01:17:44;2.33;;;1.70;;
19183;SDS011;9724;51.194;6.856;2023-04-24T01:20:11;1.60;;;1.60;;
19183;SDS011;9724;51.194;6.856;2023-04-24T01:22:38;3.03;;;2.30;;
19183;SDS011;9724;51.194;6.856;2023-04-24T01:25:04;4.87;;;2.50;;
19183;SDS011;9724;51.194;6.856;2023-04-24T01:27:31;3.67;;;2.90;;
19183;SDS011;9724;51.194;6.856;2023-04-24T01:29:57;3.37;;;2.90;;
19183;SDS011;9724;51.194;6.856;2023-04-24T01:32:23;7.33;;;3.00;;
19183;SDS011;9724;51.194;6.856;2023-04-24T01:34:50;6.53;;;3.47;;
19183;SDS011;9724;51.194;6.856;2023-04-24T01:37:16;9.07;;;3.60;;
19183;SDS011;9724;51.194;6.856;2023-04-24T01:39:43;9.03;;;4.20;;
19183;SDS011;9724;51.194;6.856;2023-04-24T01:42:09;5.90;;;3.80;;
19183;SDS011;9724;51.194;6.856;2023-04-24T01:44:36;5.23;;;4.00;;
19183;SDS011;9724;51.194;6.856;2023-04-24T01:47:02;7.83;;;4.30;;
19183;SDS011;9724;51.194;6.856;2023-04-24T01:49:28;8.27;;;4.13;;
19183;SDS011;9724;51.194;6.856;2023-04-24T01:51:55;10.80;;;4.30;;
19183;SDS011;9724;51.194;6.856;2023-04-24T01:54:21;12.50;;;4.10;;
19183;SDS011;9724;51.194;6.856;2023-04-24T01:56:48;6.87;;;3.97;;
19183;SDS011;9724;51.194;6.856;2023-04-24T01:59:14;7.57;;;4.33;;
19183;SDS011;9724;51.194;6.856;2023-04-24T02:01:41;7.63;;;4.13;;
19183;SDS011;9724;51.194;6.856;2023-04-24T02:04:07;8.37;;;4.30;;
19183;SDS011;9724;51.194;6.856;2023-04-24T02:06:34;11.73;;;4.97;;
19183;SDS011;9724;51.194;6.856;2023-04-24T02:09:01;7.13;;;4.70;;
19183;SDS011;9724;51.194;6.856;2023-04-24T02:11:28;7.23;;;4.47;;
19183;SDS011;9724;51.194;6.856;2023-04-24T02:13:55;6.83;;;4.70;;
19183;SDS011;9724;51.194;6.856;2023-04-24T02:16:21;10.87;;;5.47;;
19183;SDS011;9724;51.194;6.856;2023-04-24T02:18:47;10.90;;;5.70;;
19183;SDS011;9724;51.194;6.856;2023-04-24T02:21:13;9.33;;;5.80;;
19183;SDS011;9724;51.194;6.856;2023-04-24T02:23:40;10.70;;;5.50;;
19183;SDS011;9724;51.194;6.856;2023-04-24T02:26:06;9.23;;;5.37;;
19183;SDS011;9724;51.194;6.856;2023-04-24T02:28:32;10.37;;;5.60;;
19183;SDS011;9724;51.194;6.856;2023-04-24T02:30:59;8.40;;;5.70;;
19183;SDS011;9724;51.194;6.856;2023-04-24T02:33:25;10.37;;;6.10;;
19183;SDS011;9724;51.194;6.856;2023-04-24T02:35:52;12.20;;;6.33;;
19183;SDS011;9724;51.194;6.856;2023-04-24T02:38:18;13.13;;;5.97;;
19183;SDS011;9724;51.194;6.856;2023-04-24T02:40:44;15.50;;;6.83;;
19183;SDS011;9724;51.194;6.856;2023-04-24T02:43:10;15.53;;;7.10;;
19183;SDS011;9724;51.194;6.856;2023-04-24T02:45:36;10.43;;;6.37;;
19183;SDS011;9724;51.194;6.856;2023-04-24T02:48:04;11.73;;;6.70;;
19183;SDS011;9724;51.194;6.856;2023-04-24T02:50:30;15.47;;;6.47;;
19183;SDS011;9724;51.194;6.856;2023-04-24T02:52:58;12.33;;;7.20;;
19183;SDS011;9724;51.194;6.856;2023-04-24T02:55:25;16.13;;;7.63;;
19183;SDS011;9724;51.194;6.856;2023-04-24T02:57:51;13.93;;;8.00;;
19183;SDS011;9724;51.194;6.856;2023-04-24T03:00:17;12.80;;;7.53;;
19183;SDS011;9724;51.194;6.856;2023-04-24T03:02:43;12.57;;;7.60;;
19183;SDS011;9724;51.194;6.856;2023-04-24T03:05:11;15.90;;;8.47;;
19183;SDS011;9724;51.194;6.856;2023-04-24T03:07:37;13.97;;;7.97;;
19183;SDS011;9724;51.194;6.856;2023-04-24T03:10:04;14.67;;;7.73;;
19183;SDS011;9724;51.194;6.856;2023-04-24T03:12:31;18.07;;;7.93;;
19183;SDS011;9724;51.194;6.856;2023-04-24T03:14:57;15.40;;;7.47;;
19183;SDS011;9724;51.194;6.856;2023-04-24T03:17:23;12.40;;;7.70;;
19183;SDS011;9724;51.194;6.856;2023-04-24T03:19:50;12.97;;;7.63;;
19183;SDS011;9724;51.194;6.856;2023-04-24T03:22:17;13.80;;;8.00;;
19183;SDS011;9724;51.194;6.856;2023-04-24T03:24:43;13.57;;;7.63;;
19183;SDS011;9724;51.194;6.856;2023-04-24T03:27:09;13.07;;;7.57;;
19183;SDS011;9724;51.194;6.856;2023-04-24T03:29:35;14.93;;;8.13;;
19183;SDS011;9724;51.194;6.856;2023-04-24T03:32:01;12.13;;;7.50;;
19183;SDS011;9724;51.194;6.856;2023-04-24T03:34:27;14.63;;;7.33;;
19183;SDS011;9724;51.194;6.856;2023-04-24T03:36:53;11.30;;;7.30;;
19183;SDS011;9724;51.194;6.856;2023-04-24T03:39:20;16.30;;;7.37;;
19183;SDS011;9724;51.194;6.856;2023-04-24T03:41:46;17.80;;;7.70;;
19183;SDS011;9724;51.194;6.856;2023-04-24T03:44:13;13.30;;;7.77;;
19183;SDS011;9724;51.194;6.856;2023-04-24T03:46:39;10.20;;;7.43;;
19183;SDS011;9724;51.194;6.856;2023-04-24T03:49:05;10.90;;;7.93;;
19183;SDS011;9724;51.194;6.856;2023-04-24T03:51:31;16.57;;;8.27;;
19183;SDS011;9724;51.194;6.856;2023-04-24T03:53:57;13.00;;;7.50;;
19183;SDS011;9724;51.194;6.856;2023-04-24T03:56:24;13.47;;;7.80;;
19183;SDS011;9724;51.194;6.856;2023-04-24T03:58:50;14.83;;;7.40;;
19183;SDS011;9724;51.194;6.856;2023-04-24T04:01:16;13.43;;;7.50;;
19183;SDS011;9724;51.194;6.856;2023-04-24T04:03:44;16.70;;;7.90;;
19183;SDS011;9724;51.194;6.856;2023-04-24T04:06:10;10.20;;;7.43;;
19183;SDS011;9724;51.194;6.856;2023-04-24T04:08:38;16.60;;;7.93;;
19183;SDS011;9724;51.194;6.856;2023-04-24T04:11:04;18.97;;;8.77;;
19183;SDS011;9724;51.194;6.856;2023-04-24T04:13:31;14.57;;;8.07;;
19183;SDS011;9724;51.194;6.856;2023-04-24T04:15:57;14.73;;;7.87;;
19183;SDS011;9724;51.194;6.856;2023-04-24T04:18:23;12.07;;;8.60;;
19183;SDS011;9724;51.194;6.856;2023-04-24T04:20:50;13.63;;;7.70;;
19183;SDS011;9724;51.194;6.856;2023-04-24T04:23:16;15.93;;;7.80;;
19183;SDS011;9724;51.194;6.856;2023-04-24T04:25:42;14.97;;;7.63;;
19183;SDS011;9724;51.194;6.856;2023-04-24T04:28:08;13.77;;;7.23;;
19183;SDS011;9724;51.194;6.856;2023-04-24T04:30:35;14.67;;;7.33;;
19183;SDS011;9724;51.194;6.856;2023-04-24T04:33:03;12.93;;;7.50;;
19183;SDS011;9724;51.194;6.856;2023-04-24T04:35:29;14.03;;;8.00;;
19183;SDS011;9724;51.194;6.856;2023-04-24T04:37:55;16.63;;;8.10;;
19183;SDS011;9724;51.194;6.856;2023-04-24T04:40:24;13.43;;;7.70;;
19183;SDS011;9724;51.194;6.856;2023-04-24T04:42:50;14.00;;;7.50;;
19183;SDS011;9724;51.194;6.856;2023-04-24T04:45:18;15.83;;;8.40;;
19183;SDS011;9724;51.194;6.856;2023-04-24T04:47:46;13.77;;;7.97;;
19183;SDS011;9724;51.194;6.856;2023-04-24T04:50:12;14.17;;;7.87;;
19183;SDS011;9724;51.194;6.856;2023-04-24T04:52:39;13.17;;;7.13;;
19183;SDS011;9724;51.194;6.856;2023-04-24T04:55:06;14.57;;;7.77;;
19183;SDS011;9724;51.194;6.856;2023-04-24T04:57:33;11.87;;;7.23;;
19183;SDS011;9724;51.194;6.856;2023-04-24T04:59:59;11.97;;;7.13;;
19183;SDS011;9724;51.194;6.856;2023-04-24T05:02:25;15.47;;;7.43;;
19183;SDS011;9724;51.194;6.856;2023-04-24T05:04:52;10.13;;;7.27;;
19183;SDS011;9724;51.194;6.856;2023-04-24T05:07:19;12.37;;;7.27;;
19183;SDS011;9724;51.194;6.856;2023-04-24T05:09:45;12.50;;;7.10;;
19183;SDS011;9724;51.194;6.856;2023-04-24T05:12:11;9.77;;;6.87;;
19183;SDS011;9724;51.194;6.856;2023-04-24T05:14:37;13.20;;;6.90;;
19183;SDS011;9724;51.194;6.856;2023-04-24T05:17:03;9.90;;;6.37;;
19183;SDS011;9724;51.194;6.856;2023-04-24T05:19:30;10.50;;;6.17;;
19183;SDS011;9724;51.194;6.856;2023-04-24T05:21:58;14.80;;;6.30;;
19183;SDS011;9724;51.194;6.856;2023-04-24T05:24:28;7.27;;;5.27;;
19183;SDS011;9724;51.194;6.856;2023-04-24T05:26:54;9.33;;;6.07;;
19183;SDS011;9724;51.194;6.856;2023-04-24T05:29:22;15.67;;;6.10;;
19183;SDS011;9724;51.194;6.856;2023-04-24T05:31:48;11.07;;;6.57;;
19183;SDS011;9724;51.194;6.856;2023-04-24T05:34:14;12.07;;;6.67;;
19183;SDS011;9724;51.194;6.856;2023-04-24T05:36:42;10.73;;;5.93;;
19183;SDS011;9724;51.194;6.856;2023-04-24T05:39:08;10.43;;;6.57;;
19183;SDS011;9724;51.194;6.856;2023-04-24T05:41:35;14.77;;;7.40;;
19183;SDS011;9724;51.194;6.856;2023-04-24T05:44:01;11.13;;;7.10;;
19183;SDS011;9724;51.194;6.856;2023-04-24T05:46:27;11.43;;;7.07;;
19183;SDS011;9724;51.194;6.856;2023-04-24T05:48:53;12.10;;;7.00;;
19183;SDS011;9724;51.194;6.856;2023-04-24T05:51:20;12.60;;;7.47;;
19183;SDS011;9724;51.194;6.856;2023-04-24T05:53:46;17.80;;;8.20;;
19183;SDS011;9724;51.194;6.856;2023-04-24T05:56:13;13.43;;;7.80;;
19183;SDS011;9724;51.194;6.856;2023-04-24T05:58:39;13.80;;;7.50;;
19183;SDS011;9724;51.194;6.856;2023-04-24T06:01:06;12.50;;;7.70;;
19183;SDS011;9724;51.194;6.856;2023-04-24T06:03:32;11.00;;;6.90;;
19183;SDS011;9724;51.194;6.856;2023-04-24T06:05:59;11.40;;;7.67;;
19183;SDS011;9724;51.194;6.856;2023-04-24T06:08:25;20.37;;;7.90;;
19183;SDS011;9724;51.194;6.856;2023-04-24T06:10:51;10.40;;;6.87;;
19183;SDS011;9724;51.194;6.856;2023-04-24T06:13:18;13.77;;;6.80;;
19183;SDS011;9724;51.194;6.856;2023-04-24T06:15:44;11.47;;;6.63;;
19183;SDS011;9724;51.194;6.856;2023-04-24T06:18:10;10.90;;;5.90;;
19183;SDS011;9724;51.194;6.856;2023-04-24T06:20:38;11.37;;;6.20;;
19183;SDS011;9724;51.194;6.856;2023-04-24T06:23:04;10.53;;;6.10;;
19183;SDS011;9724;51.194;6.856;2023-04-24T06:25:30;11.60;;;6.60;;
19183;SDS011;9724;51.194;6.856;2023-04-24T06:27:56;10.10;;;6.00;;
19183;SDS011;9724;51.194;6.856;2023-04-24T06:30:24;8.53;;;5.87;;
19183;SDS011;9724;51.194;6.856;2023-04-24T06:32:51;9.53;;;5.50;;
19183;SDS011;9724;51.194;6.856;2023-04-24T06:35:17;9.77;;;5.83;;
19183;SDS011;9724;51.194;6.856;2023-04-24T06:37:43;12.80;;;5.57;;
19183;SDS011;9724;51.194;6.856;2023-04-24T06:40:10;8.30;;;5.50;;
19183;SDS011;9724;51.194;6.856;2023-04-24T06:42:36;9.70;;;5.50;;
19183;SDS011;9724;51.194;6.856;2023-04-24T06:45:03;10.27;;;5.70;;
19183;SDS011;9724;51.194;6.856;2023-04-24T06:47:31;8.53;;;5.17;;
19183;SDS011;9724;51.194;6.856;2023-04-24T06:49:57;10.17;;;5.27;;
19183;SDS011;9724;51.194;6.856;2023-04-24T06:52:23;9.93;;;5.00;;
19183;SDS011;9724;51.194;6.856;2023-04-24T06:54:49;9.90;;;5.57;;
19183;SDS011;9724;51.194;6.856;2023-04-24T06:57:15;6.93;;;4.67;;
19183;SDS011;9724;51.194;6.856;2023-04-24T06:59:41;7.73;;;5.07;;
19183;SDS011;9724;51.194;6.856;2023-04-24T07:02:08;10.77;;;4.53;;
19183;SDS011;9724;51.194;6.856;2023-04-24T07:04:35;11.93;;;4.57;;
19183;SDS011;9724;51.194;6.856;2023-04-24T07:07:02;11.43;;;4.83;;
19183;SDS011;9724;51.194;6.856;2023-04-24T07:09:30;7.70;;;4.77;;
19183;SDS011;9724;51.194;6.856;2023-04-24T07:11:56;8.57;;;4.03;;
19183;SDS011;9724;51.194;6.856;2023-04-24T07:14:22;8.37;;;4.20;;
19183;SDS011;9724;51.194;6.856;2023-04-24T07:16:48;6.33;;;4.27;;
19183;SDS011;9724;51.194;6.856;2023-04-24T07:19:15;6.17;;;4.03;;
19183;SDS011;9724;51.194;6.856;2023-04-24T07:21:41;6.37;;;3.67;;
19183;SDS011;9724;51.194;6.856;2023-04-24T07:24:08;6.00;;;3.70;;
19183;SDS011;9724;51.194;6.856;2023-04-24T07:26:36;5.40;;;2.80;;
19183;SDS011;9724;51.194;6.856;2023-04-24T07:29:02;6.40;;;2.70;;
19183;SDS011;9724;51.194;6.856;2023-04-24T07:31:29;4.17;;;2.60;;
19183;SDS011;9724;51.194;6.856;2023-04-24T07:33:55;3.20;;;2.50;;
19183;SDS011;9724;51.194;6.856;2023-04-24T07:36:23;2.13;;;2.00;;
19183;SDS011;9724;51.194;6.856;2023-04-24T07:38:51;2.40;;;2.20;;
19183;SDS011;9724;51.194;6.856;2023-04-24T07:41:18;1.60;;;1.50;;
19183;SDS011;9724;51.194;6.856;2023-04-24T07:43:44;6.93;;;1.40;;
19183;SDS011;9724;51.194;6.856;2023-04-24T07:46:11;0.90;;;0.90;;
19183;SDS011;9724;51.194;6.856;2023-04-24T07:48:37;2.13;;;0.93;;
19183;SDS011;9724;51.194;6.856;2023-04-24T07:51:03;1.70;;;0.80;;
19183;SDS011;9724;51.194;6.856;2023-04-24T07:53:29;0.50;;;0.50;;
19183;SDS011;9724;51.194;6.856;2023-04-24T07:55:56;0.60;;;0.60;;
19183;SDS011;9724;51.194;6.856;2023-04-24T07:58:22;1.53;;;0.60;;
19183;SDS011;9724;51.194;6.856;2023-04-24T08:00:48;0.87;;;0.80;;
19183;SDS011;9724;51.194;6.856;2023-04-24T08:03:14;2.47;;;0.70;;
19183;SDS011;9724;51.194;6.856;2023-04-24T08:05:44;2.13;;;1.00;;
19183;SDS011;9724;51.194;6.856;2023-04-24T08:08:10;2.70;;;0.70;;
19183;SDS011;9724;51.194;6.856;2023-04-24T08:10:36;0.60;;;0.60;;
19183;SDS011;9724;51.194;6.856;2023-04-24T08:13:03;1.27;;;0.50;;
19183;SDS011;9724;51.194;6.856;2023-04-24T08:15:29;0.60;;;0.60;;
19183;SDS011;9724;51.194;6.856;2023-04-24T08:17:55;0.97;;;0.67;;
19183;SDS011;9724;51.194;6.856;2023-04-24T08:20:24;2.23;;;0.90;;
19183;SDS011;9724;51.194;6.856;2023-04-24T08:22:50;2.60;;;1.30;;
19183;SDS011;9724;51.194;6.856;2023-04-24T08:25:16;1.57;;;1.50;;
19183;SDS011;9724;51.194;6.856;2023-04-24T08:27:43;5.30;;;2.00;;
19183;SDS011;9724;51.194;6.856;2023-04-24T08:30:11;2.30;;;2.10;;
19183;SDS011;9724;51.194;6.856;2023-04-24T08:32:37;3.53;;;2.60;;
19183;SDS011;9724;51.194;6.856;2023-04-24T08:35:04;3.40;;;3.10;;
19183;SDS011;9724;51.194;6.856;2023-04-24T08:37:30;7.60;;;3.00;;
19183;SDS011;9724;51.194;6.856;2023-04-24T08:39:56;7.07;;;3.37;;
19183;SDS011;9724;51.194;6.856;2023-04-24T08:42:22;3.73;;;3.13;;
19183;SDS011;9724;51.194;6.856;2023-04-24T08:44:49;6.30;;;3.57;;
19183;SDS011;9724;51.194;6.856;2023-04-24T08:47:16;6.07;;;3.53;;
19183;SDS011;9724;51.194;6.856;2023-04-24T08:49:43;3.77;;;3.40;;
19183;SDS011;9724;51.194;6.856;2023-04-24T08:52:10;6.30;;;4.40;;
19183;SDS011;9724;51.194;6.856;2023-04-24T08:54:38;7.33;;;3.70;;
19183;SDS011;9724;51.194;6.856;2023-04-24T08:57:05;4.37;;;3.73;;
19183;SDS011;9724;51.194;6.856;2023-04-24T08:59:33;4.40;;;3.77;;
19183;SDS011;9724;51.194;6.856;2023-04-24T09:01:59;7.83;;;3.97;;
19183;SDS011;9724;51.194;6.856;2023-04-24T09:04:26;6.60;;;4.00;;
19183;SDS011;9724;51.194;6.856;2023-04-24T09:06:55;4.87;;;3.40;;
19183;SDS011;9724;51.194;6.856;2023-04-24T09:09:23;5.57;;;2.80;;
19183;SDS011;9724;51.194;6.856;2023-04-24T09:11:49;3.37;;;3.07;;
19183;SDS011;9724;51.194;6.856;2023-04-24T09:14:16;3.20;;;2.90;;
19183;SDS011;9724;51.194;6.856;2023-04-24T09:16:42;7.57;;;2.80;;
19183;SDS011;9724;51.194;6.856;2023-04-24T09:19:09;5.60;;;3.13;;
19183;SDS011;9724;51.194;6.856;2023-04-24T09:21:36;5.33;;;3.00;;
19183;SDS011;9724;51.194;6.856;2023-04-24T09:24:03;6.33;;;3.30;;
19183;SDS011;9724;51.194;6.856;2023-04-24T09:26:31;5.70;;;3.43;;
19183;SDS011;9724;51.194;6.856;2023-04-24T09:28:58;7.00;;;3.77;;
19183;SDS011;9724;51.194;6.856;2023-04-24T09:31:26;6.33;;;3.57;;
19183;SDS011;9724;51.194;6.856;2023-04-24T09:33:53;7.50;;;3.53;;
19183;SDS011;9724;51.194;6.856;2023-04-24T09:36:23;3.93;;;3.53;;
19183;SDS011;9724;51.194;6.856;2023-04-24T09:38:55;3.67;;;3.37;;
19183;SDS011;9724;51.194;6.856;2023-04-24T09:41:23;4.33;;;3.70;;
19183;SDS011;9724;51.194;6.856;2023-04-24T09:43:50;4.77;;;3.43;;
19183;SDS011;9724;51.194;6.856;2023-04-24T09:46:16;5.53;;;4.10;;
19183;SDS011;9724;51.194;6.856;2023-04-24T09:48:44;10.90;;;4.00;;
19183;SDS011;9724;51.194;6.856;2023-04-24T09:51:10;6.33;;;3.97;;
19183;SDS011;9724;51.194;6.856;2023-04-24T09:53:37;13.17;;;4.30;;
19183;SDS011;9724;51.194;6.856;2023-04-24T09:56:07;6.33;;;4.10;;
19183;SDS011;9724;51.194;6.856;2023-04-24T09:58:34;10.87;;;4.80;;
19183;SDS011;9724;51.194;6.856;2023-04-24T10:01:01;11.47;;;5.13;;
19183;SDS011;9724;51.194;6.856;2023-04-24T10:03:29;8.27;;;5.17;;
19183;SDS011;9724;51.194;6.856;2023-04-24T10:05:58;7.73;;;5.03;;
19183;SDS011;9724;51.194;6.856;2023-04-24T10:08:24;14.73;;;5.80;;
19183;SDS011;9724;51.194;6.856;2023-04-24T10:10:51;10.40;;;5.70;;
19183;SDS011;9724;51.194;6.856;2023-04-24T10:13:18;9.20;;;6.17;;
19183;SDS011;9724;51.194;6.856;2023-04-24T10:15:45;12.23;;;6.70;;
19183;SDS011;9724;51.194;6.856;2023-04-24T10:18:12;14.53;;;6.60;;
19183;SDS011;9724;51.194;6.856;2023-04-24T10:20:39;12.77;;;6.30;;
19183;SDS011;9724;51.194;6.856;2023-04-24T10:23:06;11.40;;;5.87;;
19183;SDS011;9724;51.194;6.856;2023-04-24T10:25:32;13.67;;;6.70;;
19183;SDS011;9724;51.194;6.856;2023-04-24T10:28:00;12.90;;;6.00;;
19183;SDS011;9724;51.194;6.856;2023-04-24T10:30:28;12.33;;;6.40;;
19183;SDS011;9724;51.194;6.856;2023-04-24T10:32:55;11.47;;;6.10;;
19183;SDS011;9724;51.194;6.856;2023-04-24T10:35:22;10.07;;;6.20;;
19183;SDS011;9724;51.194;6.856;2023-04-24T10:37:54;18.07;;;6.23;;
19183;SDS011;9724;51.194;6.856;2023-04-24T10:40:25;12.10;;;5.93;;
19183;SDS011;9724;51.194;6.856;2023-04-24T10:42:52;13.70;;;6.27;;
19183;SDS011;9724;51.194;6.856;2023-04-24T10:45:19;19.10;;;6.57;;
19183;SDS011;9724;51.194;6.856;2023-04-24T10:47:51;22.83;;;6.93;;
19183;SDS011;9724;51.194;6.856;2023-04-24T10:50:25;12.10;;;6.13;;
19183;SDS011;9724;51.194;6.856;2023-04-24T10:52:52;16.63;;;6.37;;
19183;SDS011;9724;51.194;6.856;2023-04-24T10:58:11;11.10;;;4.77;;
19183;SDS011;9724;51.194;6.856;2023-04-24T11:00:37;13.33;;;5.13;;
19183;SDS011;9724;51.194;6.856;2023-04-24T11:03:05;14.50;;;5.20;;
19183;SDS011;9724;51.194;6.856;2023-04-24T11:08:21;12.20;;;4.97;;
19183;SDS011;9724;51.194;6.856;2023-04-24T11:10:54;16.20;;;5.90;;
19183;SDS011;9724;51.194;6.856;2023-04-24T11:13:22;18.00;;;5.00;;
19183;SDS011;9724;51.194;6.856;2023-04-24T11:18:40;11.93;;;4.77;;
19183;SDS011;9724;51.194;6.856;2023-04-24T11:21:10;13.50;;;4.80;;
19183;SDS011;9724;51.194;6.856;2023-04-24T11:23:37;11.77;;;4.23;;
19183;SDS011;9724;51.194;6.856;2023-04-24T11:26:14;12.77;;;4.80;;
19183;SDS011;9724;51.194;6.856;2023-04-24T11:28:46;15.37;;;4.93;;
19183;SDS011;9724;51.194;6.856;2023-04-24T11:34:06;13.93;;;4.40;;
19183;SDS011;9724;51.194;6.856;2023-04-24T11:36:33;17.67;;;4.17;;
19183;SDS011;9724;51.194;6.856;2023-04-24T11:39:00;13.10;;;4.00;;
19183;SDS011;9724;51.194;6.856;2023-04-24T11:41:26;12.10;;;4.43;;
19183;SDS011;9724;51.194;6.856;2023-04-24T11:43:54;18.53;;;4.70;;
19183;SDS011;9724;51.194;6.856;2023-04-24T11:46:20;14.30;;;4.30;;
19183;SDS011;9724;51.194;6.856;2023-04-24T11:48:46;11.17;;;3.77;;
19183;SDS011;9724;51.194;6.856;2023-04-24T11:51:13;14.60;;;4.10;;
19183;SDS011;9724;51.194;6.856;2023-04-24T11:53:40;11.90;;;4.50;;
19183;SDS011;9724;51.194;6.856;2023-04-24T11:56:06;18.23;;;4.30;;
19183;SDS011;9724;51.194;6.856;2023-04-24T11:58:35;15.37;;;4.20;;
19183;SDS011;9724;51.194;6.856;2023-04-24T12:01:01;13.93;;;4.37;;
19183;SDS011;9724;51.194;6.856;2023-04-24T12:03:28;11.07;;;3.57;;
19183;SDS011;9724;51.194;6.856;2023-04-24T12:06:04;9.43;;;3.63;;
19183;SDS011;9724;51.194;6.856;2023-04-24T12:08:32;13.87;;;4.00;;
19183;SDS011;9724;51.194;6.856;2023-04-24T12:10:58;17.13;;;3.83;;
19183;SDS011;9724;51.194;6.856;2023-04-24T12:13:26;9.50;;;3.40;;
19183;SDS011;9724;51.194;6.856;2023-04-24T12:15:52;12.13;;;3.20;;
19183;SDS011;9724;51.194;6.856;2023-04-24T12:18:19;14.17;;;3.53;;
19183;SDS011;9724;51.194;6.856;2023-04-24T12:20:48;9.80;;;3.47;;
19183;SDS011;9724;51.194;6.856;2023-04-24T12:23:14;11.60;;;3.67;;
19183;SDS011;9724;51.194;6.856;2023-04-24T12:25:41;10.50;;;3.40;;
19183;SDS011;9724;51.194;6.856;2023-04-24T12:28:11;14.83;;;3.87;;
19183;SDS011;9724;51.194;6.856;2023-04-24T12:30:39;9.50;;;3.43;;
19183;SDS011;9724;51.194;6.856;2023-04-24T12:33:06;9.67;;;2.70;;
19183;SDS011;9724;51.194;6.856;2023-04-24T12:35:32;8.20;;;2.27;;
19183;SDS011;9724;51.194;6.856;2023-04-24T12:38:06;9.37;;;2.57;;
19183;SDS011;9724;51.194;6.856;2023-04-24T12:40:35;6.13;;;2.57;;
19183;SDS011;9724;51.194;6.856;2023-04-24T12:43:02;6.20;;;2.10;;
19183;SDS011;9724;51.194;6.856;2023-04-24T12:45:39;4.87;;;2.20;;
19183;SDS011;9724;51.194;6.856;2023-04-24T12:48:06;3.83;;;2.23;;
19183;SDS011;9724;51.194;6.856;2023-04-24T12:50:32;4.07;;;1.90;;
19183;SDS011;9724;51.194;6.856;2023-04-24T12:52:58;8.00;;;2.57;;
19183;SDS011;9724;51.194;6.856;2023-04-24T12:55:24;5.90;;;1.97;;
19183;SDS011;9724;51.194;6.856;2023-04-24T12:57:50;2.27;;;1.73;;
19183;SDS011;9724;51.194;6.856;2023-04-24T13:00:18;2.23;;;1.63;;
19183;SDS011;9724;51.194;6.856;2023-04-24T13:02:45;3.77;;;1.60;;
19183;SDS011;9724;51.194;6.856;2023-04-24T13:05:12;5.57;;;1.70;;
19183;SDS011;9724;51.194;6.856;2023-04-24T13:07:39;4.13;;;1.30;;
19183;SDS011;9724;51.194;6.856;2023-04-24T13:10:05;3.73;;;1.47;;
19183;SDS011;9724;51.194;6.856;2023-04-24T13:12:32;7.97;;;2.07;;
19183;SDS011;9724;51.194;6.856;2023-04-24T13:14:59;3.97;;;1.53;;
19183;SDS011;9724;51.194;6.856;2023-04-24T13:17:25;5.10;;;1.70;;
19183;SDS011;9724;51.194;6.856;2023-04-24T13:19:54;2.40;;;1.30;;
19183;SDS011;9724;51.194;6.856;2023-04-24T13:22:20;6.87;;;1.50;;
19183;SDS011;9724;51.194;6.856;2023-04-24T13:24:47;3.47;;;2.43;;
19183;SDS011;9724;51.194;6.856;2023-04-24T13:27:14;4.57;;;1.60;;
19183;SDS011;9724;51.194;6.856;2023-04-24T13:29:41;1.97;;;1.30;;
19183;SDS011;9724;51.194;6.856;2023-04-24T13:32:07;3.80;;;1.63;;
19183;SDS011;9724;51.194;6.856;2023-04-24T13:34:34;7.43;;;1.67;;
19183;SDS011;9724;51.194;6.856;2023-04-24T13:37:00;8.00;;;1.67;;
19183;SDS011;9724;51.194;6.856;2023-04-24T13:39:29;4.23;;;1.60;;
19183;SDS011;9724;51.194;6.856;2023-04-24T13:41:55;6.43;;;2.17;;
19183;SDS011;9724;51.194;6.856;2023-04-24T13:44:21;4.03;;;1.90;;
19183;SDS011;9724;51.194;6.856;2023-04-24T13:46:49;3.20;;;1.80;;
19183;SDS011;9724;51.194;6.856;2023-04-24T13:49:17;5.93;;;2.00;;
19183;SDS011;9724;51.194;6.856;2023-04-24T13:51:44;5.07;;;1.97;;
19183;SDS011;9724;51.194;6.856;2023-04-24T13:54:11;2.77;;;1.80;;
19183;SDS011;9724;51.194;6.856;2023-04-24T13:56:38;3.33;;;1.73;;
19183;SDS011;9724;51.194;6.856;2023-04-24T13:59:04;3.60;;;1.70;;
19183;SDS011;9724;51.194;6.856;2023-04-24T14:01:30;4.13;;;1.80;;
19183;SDS011;9724;51.194;6.856;2023-04-24T14:03:57;6.47;;;2.00;;
19183;SDS011;9724;51.194;6.856;2023-04-24T14:06:23;2.53;;;1.73;;
19183;SDS011;9724;51.194;6.856;2023-04-24T14:08:50;8.13;;;1.90;;
19183;SDS011;9724;51.194;6.856;2023-04-24T14:11:17;9.17;;;1.80;;
19183;SDS011;9724;51.194;6.856;2023-04-24T14:13:43;5.27;;;1.70;;
19183;SDS011;9724;51.194;6.856;2023-04-24T14:16:11;6.00;;;2.13;;
19183;SDS011;9724;51.194;6.856;2023-04-24T14:18:37;3.43;;;1.90;;
19183;SDS011;9724;51.194;6.856;2023-04-24T14:21:04;4.63;;;1.80;;
19183;SDS011;9724;51.194;6.856;2023-04-24T14:23:30;9.93;;;2.10;;
19183;SDS011;9724;51.194;6.856;2023-04-24T14:25:57;8.97;;;1.80;;
19183;SDS011;9724;51.194;6.856;2023-04-24T14:28:24;3.87;;;1.50;;
19183;SDS011;9724;51.194;6.856;2023-04-24T14:30:50;4.97;;;1.70;;
19183;SDS011;9724;51.194;6.856;2023-04-24T14:33:17;2.87;;;1.57;;
19183;SDS011;9724;51.194;6.856;2023-04-24T14:35:43;1.97;;;1.30;;
19183;SDS011;9724;51.194;6.856;2023-04-24T14:38:09;2.80;;;1.47;;
19183;SDS011;9724;51.194;6.856;2023-04-24T14:40:36;3.87;;;1.73;;
19183;SDS011;9724;51.194;6.856;2023-04-24T14:43:23;3.03;;;1.50;;
19183;SDS011;9724;51.194;6.856;2023-04-24T14:45:49;5.17;;;1.77;;
19183;SDS011;9724;51.194;6.856;2023-04-24T14:48:15;2.27;;;1.33;;
19183;SDS011;9724;51.194;6.856;2023-04-24T14:50:43;4.77;;;1.63;;
19183;SDS011;9724;51.194;6.856;2023-04-24T14:53:09;1.93;;;1.27;;
19183;SDS011;9724;51.194;6.856;2023-04-24T14:55:35;5.33;;;1.60;;
19183;SDS011;9724;51.194;6.856;2023-04-24T14:58:02;4.50;;;1.30;;
19183;SDS011;9724;51.194;6.856;2023-04-24T15:00:29;1.60;;;1.50;;
19183;SDS011;9724;51.194;6.856;2023-04-24T15:02:55;8.37;;;1.97;;
19183;SDS011;9724;51.194;6.856;2023-04-24T15:05:22;1.47;;;1.30;;